< < Back
Terminal Aerodrome Forecast


Current Version              Previous Versions:   1  2  3  4  5  6  7  8  9  

Terminal Aerodrome Forecast

659
FTUS44 KMRX 301506 AAA
TAFCHA
TAF AMD
KCHA 301506Z 3015/3112 34009KT P6SM SCT040
     FM310000 VRB03KT P6SM SCT250=

Latest METAR

120
SAUS80 KWBC 302300 RRA
MTRCHA
METAR KCHA 302253Z 27010KT 10SM CLR 21/M01 A3009 RMK AO2 SLP186
T02061006


USA.gov is the U.S. government's official web portal to all federal, state and local government web resources and services.